Terminal Aerodrome Forecast
Issued by NWS

Home | Current Version | Previous Version | Text Only | Print | Product List | Glossary On
Versions: 1 2 3 4 5 6 7 8 9 10 11 12 13 14 15 16
000
FTUS43 KIND 250520
TAFLAF
TAF
KLAF 250520Z 2506/2606 VRB03KT 5SM -SHRA VCTS BKN040CB
     FM250900 VRB03KT 3SM BR VCSH SCT025 BKN100
     FM251400 31004KT P6SM SCT035 BKN120
     FM251900 33006KT P6SM SCT250
     FM260000 01003KT P6SM SKC=

USA.gov is the U.S. government's official web portal to all federal, state and local government web resources and services.